createdAt,value
2019-01-19T00:02:38.297Z,-2.30
2019-01-19T00:05:10.872Z,-2.40
2019-01-19T00:07:41.837Z,-2.40
2019-01-19T00:10:20.329Z,-2.40
2019-01-19T00:13:05.301Z,-2.40
2019-01-19T00:15:35.830Z,-2.40
2019-01-19T00:18:13.240Z,-2.40
2019-01-19T00:21:00.246Z,-2.30
2019-01-19T00:23:46.465Z,-2.40
2019-01-19T00:26:15.830Z,-2.30
2019-01-19T00:28:47.188Z,-2.30
2019-01-19T00:31:18.165Z,-2.30
2019-01-19T00:33:50.573Z,-2.40
2019-01-19T00:36:18.995Z,-2.50
2019-01-19T00:38:57.285Z,-2.50
2019-01-19T00:41:26.461Z,-2.50
2019-01-19T00:43:54.010Z,-2.40
2019-01-19T00:46:29.934Z,-2.30
2019-01-19T00:49:00.403Z,-2.40
2019-01-19T00:51:28.801Z,-2.30
2019-01-19T00:54:01.113Z,-2.20
2019-01-19T00:56:30.629Z,-2.20
2019-01-19T00:58:59.133Z,-2.20
2019-01-19T01:01:28.200Z,-2.30
2019-01-19T01:04:20.528Z,-2.40
2019-01-19T01:09:58.089Z,-2.40
2019-01-19T01:15:54.336Z,-2.30
2019-01-19T01:18:29.384Z,-2.30
2019-01-19T01:21:02.404Z,-2.30
2019-01-19T01:23:39.573Z,-2.30
2019-01-19T01:26:17.648Z,-2.30
2019-01-19T01:28:55.901Z,-2.30
2019-01-19T01:31:25.234Z,-2.40
2019-01-19T01:34:07.698Z,-2.30
2019-01-19T01:36:37.840Z,-2.30
2019-01-19T01:39:18.974Z,-2.30
2019-01-19T01:45:02.505Z,-2.50
2019-01-19T01:47:55.832Z,-2.40
2019-01-19T01:50:30.017Z,-2.50
2019-01-19T01:53:07.042Z,-2.30
2019-01-19T01:55:34.692Z,-2.40
2019-01-19T01:58:06.077Z,-2.30
2019-01-19T02:03:36.312Z,-2.40
2019-01-19T02:09:29.724Z,-2.40
2019-01-19T02:12:04.857Z,-2.40
2019-01-19T02:14:34.805Z,-2.40
2019-01-19T02:20:40.864Z,-2.50
2019-01-19T02:23:29.248Z,-2.50
2019-01-19T02:29:13.023Z,-2.60
2019-01-19T02:35:15.820Z,-2.60
2019-01-19T02:37:47.861Z,-2.60
2019-01-19T02:40:18.882Z,-2.60
2019-01-19T02:42:56.954Z,-2.70
2019-01-19T02:45:39.983Z,-2.90
2019-01-19T02:51:03.603Z,-2.80
2019-01-19T02:53:53.633Z,-2.90
2019-01-19T02:56:24.826Z,-2.80
2019-01-19T02:58:58.169Z,-2.80
2019-01-19T03:01:48.070Z,-2.80
2019-01-19T03:04:19.457Z,-2.80
2019-01-19T03:10:00.919Z,-2.70
2019-01-19T03:12:49.080Z,-2.80
2019-01-19T03:18:35.457Z,-2.80
2019-01-19T03:21:21.797Z,-2.90
2019-01-19T03:23:49.381Z,-3.00
2019-01-19T03:26:28.466Z,-2.90
2019-01-19T03:29:10.477Z,-3.00
2019-01-19T03:34:49.701Z,-3.00
2019-01-19T03:37:23.028Z,-3.00
2019-01-19T03:40:13.975Z,-3.00
2019-01-19T03:43:05.015Z,-3.10
2019-01-19T03:45:44.292Z,-3.10
2019-01-19T03:48:44.554Z,-3.20
2019-01-19T03:51:12.984Z,-3.20
2019-01-19T03:53:54.095Z,-3.10
2019-01-19T03:56:33.140Z,-3.20
2019-01-19T03:59:02.567Z,-3.20
2019-01-19T04:01:50.818Z,-3.30
2019-01-19T04:04:30.212Z,-3.30
2019-01-19T04:07:04.531Z,-3.30
2019-01-19T04:13:01.169Z,-3.20
2019-01-19T04:15:52.478Z,-3.20
2019-01-19T04:18:23.743Z,-3.10
2019-01-19T04:23:54.135Z,-2.90
2019-01-19T04:26:21.700Z,-3.00
2019-01-19T04:28:49.270Z,-2.90
2019-01-19T04:31:16.855Z,-3.00
2019-01-19T04:33:44.398Z,-3.10
2019-01-19T04:36:11.960Z,-3.10
2019-01-19T04:38:39.513Z,-2.90
2019-01-19T04:41:07.075Z,-2.90
2019-01-19T04:43:35.387Z,-3.10
2019-01-19T04:46:02.948Z,-3.10
2019-01-19T04:48:30.494Z,-3.00
2019-01-19T04:50:58.056Z,-3.00
2019-01-19T04:53:25.622Z,-3.00
2019-01-19T04:55:53.169Z,-3.00
2019-01-19T04:58:20.737Z,-3.10
2019-01-19T05:00:48.275Z,-3.10
2019-01-19T05:03:15.861Z,-3.10
2019-01-19T05:05:43.391Z,-3.10
2019-01-19T05:08:10.960Z,-3.00
2019-01-19T05:10:38.493Z,-3.00
2019-01-19T05:13:06.071Z,-3.00
2019-01-19T05:15:33.609Z,-3.00
2019-01-19T05:18:01.200Z,-3.10
2019-01-19T05:20:28.770Z,-3.00
2019-01-19T05:22:56.343Z,-3.00
2019-01-19T05:25:23.899Z,-3.10
2019-01-19T05:27:51.469Z,-3.10
2019-01-19T05:30:19.038Z,-3.10
2019-01-19T05:32:46.586Z,-3.10
2019-01-19T05:35:14.155Z,-3.20
2019-01-19T05:37:42.464Z,-3.20
2019-01-19T05:40:10.039Z,-3.20
2019-01-19T05:42:38.636Z,-3.20
2019-01-19T05:45:06.946Z,-3.20
2019-01-19T05:47:34.475Z,-3.30
2019-01-19T05:50:02.048Z,-3.30
2019-01-19T05:52:29.773Z,-3.30
2019-01-19T05:54:57.339Z,-3.30
2019-01-19T05:57:24.878Z,-3.30
2019-01-19T05:59:52.456Z,-3.30
2019-01-19T06:02:19.991Z,-3.40
2019-01-19T06:04:48.456Z,-3.40
2019-01-19T06:07:16.014Z,-3.40
2019-01-19T06:09:43.552Z,-3.60
2019-01-19T06:12:11.129Z,-3.50
2019-01-19T06:14:38.674Z,-3.50
2019-01-19T06:17:07.020Z,-3.50
2019-01-19T06:19:34.560Z,-3.60
2019-01-19T06:22:02.120Z,-3.50
2019-01-19T06:24:29.681Z,-3.50
2019-01-19T06:26:57.263Z,-3.50
2019-01-19T06:29:24.827Z,-3.50
2019-01-19T06:31:52.360Z,-3.50
2019-01-19T06:34:19.921Z,-3.50
2019-01-19T06:36:54.563Z,-3.60
2019-01-19T06:39:15.094Z,-3.60
2019-01-19T06:41:42.636Z,-3.70
2019-01-19T06:44:10.198Z,-3.60
2019-01-19T06:46:37.766Z,-3.60
2019-01-19T06:49:05.324Z,-3.60
2019-01-19T06:51:32.889Z,-3.60
2019-01-19T06:54:01.684Z,-3.60
2019-01-19T06:56:28.031Z,-3.60
2019-01-19T06:58:55.595Z,-3.60
2019-01-19T07:01:23.161Z,-3.60
2019-01-19T07:03:50.699Z,-3.70
2019-01-19T07:06:18.267Z,-3.60
2019-01-19T07:08:45.807Z,-3.70
2019-01-19T07:11:13.423Z,-3.70
2019-01-19T07:13:40.989Z,-3.80
2019-01-19T07:16:09.524Z,-3.80
2019-01-19T07:18:37.096Z,-3.80
2019-01-19T07:21:04.639Z,-3.80
2019-01-19T07:23:32.203Z,-3.80
2019-01-19T07:25:59.743Z,-3.70
2019-01-19T07:28:27.307Z,-3.70
2019-01-19T07:30:54.871Z,-3.70
2019-01-19T07:33:22.435Z,-3.70
2019-01-19T07:35:49.975Z,-3.60
2019-01-19T07:38:17.551Z,-3.70
2019-01-19T07:40:45.095Z,-3.70
2019-01-19T07:43:12.671Z,-3.70
2019-01-19T07:45:40.210Z,-3.70
2019-01-19T07:48:07.783Z,-3.70
2019-01-19T07:50:36.097Z,-3.60
2019-01-19T07:53:03.635Z,-3.70
2019-01-19T07:55:31.969Z,-3.70
2019-01-19T07:57:59.517Z,-3.70
2019-01-19T08:00:27.875Z,-3.60
2019-01-19T08:02:55.442Z,-3.60
2019-01-19T08:05:22.996Z,-3.50
2019-01-19T08:07:50.562Z,-3.50
2019-01-19T08:10:18.147Z,-3.50
2019-01-19T08:12:45.717Z,-3.60
2019-01-19T08:15:23.943Z,-3.50
2019-01-19T08:17:51.525Z,-3.50
2019-01-19T08:20:19.080Z,-3.50
2019-01-19T08:22:46.654Z,-3.50
2019-01-19T08:25:14.198Z,-3.40
2019-01-19T08:27:41.751Z,-3.30
2019-01-19T08:30:16.853Z,-3.00
2019-01-19T08:32:44.402Z,-3.00
2019-01-19T08:35:13.658Z,-3.00
2019-01-19T08:37:41.203Z,-3.00
2019-01-19T08:40:26.157Z,-2.90
2019-01-19T08:42:56.338Z,-2.90
2019-01-19T08:45:24.687Z,-2.70
2019-01-19T08:47:52.230Z,-2.70
2019-01-19T08:50:19.807Z,-2.50
2019-01-19T08:52:47.350Z,-2.30
2019-01-19T08:55:14.915Z,-2.30
2019-01-19T08:57:42.463Z,-2.20
2019-01-19T09:00:10.739Z,-2.10
2019-01-19T09:02:38.300Z,-1.90
2019-01-19T09:05:05.870Z,-1.80
2019-01-19T09:07:34.069Z,-1.80
2019-01-19T09:10:01.015Z,-1.80
2019-01-19T09:12:28.548Z,-1.70
2019-01-19T09:14:56.116Z,-1.50
2019-01-19T09:17:23.655Z,-1.40
2019-01-19T09:19:51.222Z,-1.40
2019-01-19T09:22:18.759Z,-1.30
2019-01-19T09:24:46.328Z,-1.20
2019-01-19T09:27:13.875Z,-1.20
2019-01-19T09:29:41.439Z,-1.10
2019-01-19T09:32:08.975Z,-0.80
2019-01-19T09:34:36.512Z,-0.70
2019-01-19T09:37:04.073Z,-0.60
2019-01-19T09:39:31.607Z,-0.50
2019-01-19T09:41:59.168Z,-0.20
2019-01-19T09:44:26.702Z,-0.20
2019-01-19T09:46:54.259Z,0.10
2019-01-19T09:49:21.794Z,0.10
2019-01-19T09:51:49.351Z,-0.10
2019-01-19T09:54:16.896Z,-0.20
2019-01-19T09:56:44.464Z,-0.20
2019-01-19T09:59:12.004Z,-0.10
2019-01-19T10:01:39.570Z,0.00
2019-01-19T10:04:07.103Z,0.00
2019-01-19T10:06:34.664Z,0.00
2019-01-19T10:09:02.224Z,0.10
2019-01-19T10:11:29.753Z,0.20
2019-01-19T10:13:57.313Z,0.20
2019-01-19T10:16:24.876Z,0.20
2019-01-19T10:18:52.440Z,0.20
2019-01-19T10:21:19.979Z,0.30
2019-01-19T10:23:47.539Z,0.50
2019-01-19T10:26:15.863Z,0.60
2019-01-19T10:28:43.427Z,0.60
2019-01-19T10:31:10.975Z,0.60
2019-01-19T10:33:38.503Z,0.60
2019-01-19T10:36:07.047Z,0.90
2019-01-19T10:38:34.579Z,0.90
2019-01-19T10:41:02.135Z,1.00
2019-01-19T10:43:29.710Z,1.10
2019-01-19T10:45:57.243Z,1.10
2019-01-19T10:48:24.802Z,1.00
2019-01-19T10:50:52.335Z,0.90
2019-01-19T10:53:19.899Z,0.90
2019-01-19T10:55:47.441Z,1.00
2019-01-19T10:58:14.998Z,1.20
2019-01-19T11:00:42.527Z,1.30
2019-01-19T11:03:10.088Z,1.50
2019-01-19T11:05:37.635Z,1.40
2019-01-19T11:08:05.972Z,1.70
2019-01-19T11:10:33.511Z,1.70
2019-01-19T11:13:01.043Z,1.80
2019-01-19T11:15:28.607Z,1.80
2019-01-19T11:17:56.143Z,2.00
2019-01-19T11:20:26.008Z,2.00
2019-01-19T11:22:53.541Z,2.00
2019-01-19T11:25:22.099Z,1.70
2019-01-19T11:27:49.631Z,1.70
2019-01-19T11:30:17.939Z,1.70
2019-01-19T11:32:45.493Z,1.70
2019-01-19T11:35:13.801Z,1.70
2019-01-19T11:37:41.382Z,1.70
2019-01-19T11:40:11.286Z,1.70
2019-01-19T11:42:38.842Z,1.80
2019-01-19T11:45:06.367Z,1.80
2019-01-19T11:47:33.926Z,2.30
2019-01-19T11:50:01.460Z,2.50
2019-01-19T11:52:29.028Z,2.40
2019-01-19T11:54:56.604Z,2.30
2019-01-19T11:57:24.136Z,2.30
2019-01-19T11:59:52.691Z,2.20
2019-01-19T12:02:20.225Z,2.20
2019-01-19T12:04:47.780Z,2.30
2019-01-19T12:07:15.311Z,2.50
2019-01-19T12:09:42.871Z,2.50
2019-01-19T12:12:10.410Z,2.40
2019-01-19T12:14:37.965Z,2.80
2019-01-19T12:17:05.499Z,3.10
2019-01-19T12:19:33.055Z,3.20
2019-01-19T12:22:00.628Z,3.20
2019-01-19T12:24:28.179Z,2.90
2019-01-19T12:26:56.480Z,2.70
2019-01-19T12:29:24.038Z,2.70
2019-01-19T12:31:51.598Z,2.70
2019-01-19T12:34:19.153Z,3.00
2019-01-19T12:36:46.682Z,3.20
2019-01-19T12:39:15.023Z,2.30
2019-01-19T12:41:42.568Z,2.30
2019-01-19T12:44:10.123Z,2.40
2019-01-19T12:46:37.650Z,2.90
2019-01-19T12:49:05.211Z,2.90
2019-01-19T12:51:32.748Z,3.10
2019-01-19T12:54:00.305Z,2.90
2019-01-19T12:56:27.836Z,3.30
2019-01-19T12:58:55.395Z,3.20
2019-01-19T13:03:57.895Z,3.70
2019-01-19T13:06:25.482Z,3.60
2019-01-19T13:08:53.031Z,3.40
2019-01-19T13:11:32.052Z,3.50
2019-01-19T13:14:03.386Z,3.70
2019-01-19T13:19:26.768Z,3.90
2019-01-19T13:25:26.647Z,3.60
2019-01-19T13:31:17.875Z,3.90
2019-01-19T13:33:52.114Z,4.10
2019-01-19T13:39:19.662Z,3.60
2019-01-19T13:41:51.080Z,3.70
2019-01-19T13:44:23.398Z,3.40
2019-01-19T13:47:11.747Z,3.30
2019-01-19T13:53:07.402Z,3.80
2019-01-19T13:55:36.666Z,3.80
2019-01-19T13:58:04.223Z,3.60
2019-01-19T14:00:41.360Z,3.20
2019-01-19T14:03:18.411Z,3.20
2019-01-19T14:06:08.786Z,3.10
2019-01-19T14:08:49.103Z,3.20
2019-01-19T14:11:18.650Z,3.40
2019-01-19T14:14:02.013Z,3.30
2019-01-19T14:16:30.275Z,3.30
2019-01-19T14:19:03.599Z,3.20
2019-01-19T14:21:44.927Z,3.10
2019-01-19T14:24:23.296Z,2.90
2019-01-19T14:27:10.365Z,2.90
2019-01-19T14:32:58.195Z,3.20
2019-01-19T14:38:27.882Z,3.00
2019-01-19T14:41:20.146Z,3.00
2019-01-19T14:44:03.479Z,3.00
2019-01-19T14:46:44.283Z,2.90
2019-01-19T14:49:34.177Z,2.30
2019-01-19T14:52:02.499Z,2.30
2019-01-19T14:54:54.839Z,2.30
2019-01-19T14:57:33.033Z,2.30
2019-01-19T15:00:22.192Z,2.50
2019-01-19T15:02:58.107Z,2.30
2019-01-19T15:05:34.899Z,2.10
2019-01-19T15:08:09.246Z,2.10
2019-01-19T15:10:43.272Z,1.90
2019-01-19T15:13:15.289Z,1.80
2019-01-19T15:15:50.507Z,1.60
2019-01-19T15:18:22.940Z,1.50
2019-01-19T15:24:07.194Z,1.30
2019-01-19T15:26:43.103Z,1.20
2019-01-19T15:29:18.143Z,1.20
2019-01-19T15:31:50.469Z,1.10
2019-01-19T15:34:28.807Z,1.00
2019-01-19T15:37:18.982Z,0.90
2019-01-19T15:39:49.638Z,0.90
2019-01-19T15:42:24.883Z,0.90
2019-01-19T15:47:58.383Z,0.70
2019-01-19T15:50:31.695Z,0.60
2019-01-19T15:53:04.858Z,0.60
2019-01-19T15:55:32.386Z,0.50
2019-01-19T15:58:15.760Z,0.40
2019-01-19T16:00:51.845Z,0.40
2019-01-19T16:03:40.242Z,0.30
2019-01-19T16:06:17.142Z,0.10
2019-01-19T16:08:48.631Z,0.10
2019-01-19T16:11:16.187Z,0.10
2019-01-19T16:16:50.034Z,0.00
2019-01-19T16:19:25.953Z,-0.10
2019-01-19T16:22:00.360Z,-0.20
2019-01-19T16:24:40.742Z,-0.20
2019-01-19T16:27:12.923Z,-0.30
2019-01-19T16:33:14.199Z,-0.30
2019-01-19T16:35:49.226Z,-0.40
2019-01-19T16:38:35.376Z,-0.40
2019-01-19T16:41:09.663Z,-0.50
2019-01-19T16:43:55.811Z,-0.50
2019-01-19T16:46:27.251Z,-0.50
2019-01-19T16:48:57.370Z,-0.50
2019-01-19T16:51:34.438Z,-0.60
2019-01-19T16:54:05.868Z,-0.70
2019-01-19T16:56:41.200Z,-0.70
2019-01-19T17:02:19.619Z,-0.90
2019-01-19T17:04:48.216Z,-0.90
2019-01-19T17:10:18.676Z,-1.00
2019-01-19T17:12:51.104Z,-1.00
2019-01-19T17:15:29.283Z,-1.00
2019-01-19T17:18:11.495Z,-1.00
2019-01-19T17:20:57.835Z,-1.20
2019-01-19T17:23:53.059Z,-1.40
2019-01-19T17:26:21.516Z,-1.50
2019-01-19T17:28:54.069Z,-1.40
2019-01-19T17:31:24.416Z,-1.30
2019-01-19T17:33:53.808Z,-1.20
2019-01-19T17:36:31.231Z,-1.20
2019-01-19T17:41:57.954Z,-1.20
2019-01-19T17:47:20.519Z,-1.40
2019-01-19T17:49:52.719Z,-1.40
2019-01-19T17:52:36.879Z,-1.50
2019-01-19T17:58:23.066Z,-1.60
2019-01-19T18:01:01.462Z,-1.60
2019-01-19T18:03:49.679Z,-1.60
2019-01-19T18:06:17.985Z,-1.60
2019-01-19T18:08:48.399Z,-1.70
2019-01-19T18:11:22.446Z,-1.70
2019-01-19T18:13:56.826Z,-1.70
2019-01-19T18:19:37.208Z,-1.80
2019-01-19T18:22:22.403Z,-1.80
2019-01-19T18:27:51.617Z,-2.00
2019-01-19T18:30:26.670Z,-2.00
2019-01-19T18:33:02.460Z,-2.00
2019-01-19T18:38:31.765Z,-2.10
2019-01-19T18:41:11.269Z,-2.10
2019-01-19T18:43:57.508Z,-2.20
2019-01-19T18:46:29.939Z,-2.10
2019-01-19T18:49:01.229Z,-2.00
2019-01-19T18:51:34.214Z,-2.10
2019-01-19T18:54:10.669Z,-2.20
2019-01-19T18:56:41.727Z,-2.20
2019-01-19T18:59:14.179Z,-2.20
2019-01-19T19:05:00.458Z,-2.30
2019-01-19T19:07:38.810Z,-2.20
2019-01-19T19:13:25.562Z,-2.20
2019-01-19T19:16:11.506Z,-2.20
2019-01-19T19:18:40.684Z,-2.20
2019-01-19T19:21:21.976Z,-2.20
2019-01-19T19:27:22.981Z,-2.10
2019-01-19T19:29:58.247Z,-2.20
2019-01-19T19:35:31.446Z,-2.30
2019-01-19T19:38:24.419Z,-2.30
2019-01-19T19:44:15.550Z,-2.20
2019-01-19T19:46:56.286Z,-2.10
2019-01-19T19:52:27.785Z,-2.30
2019-01-19T19:54:50.650Z,-2.30
2019-01-19T19:57:18.190Z,-2.20
2019-01-19T19:59:45.758Z,-2.10
2019-01-19T20:02:13.453Z,-2.30
2019-01-19T20:04:41.305Z,-2.30
2019-01-19T20:07:08.838Z,-2.30
2019-01-19T20:09:36.388Z,-2.30
2019-01-19T20:12:03.955Z,-2.40
2019-01-19T20:14:31.497Z,-2.40
2019-01-19T20:16:59.054Z,-2.50
2019-01-19T20:19:26.599Z,-2.30
2019-01-19T20:21:55.936Z,-2.30
2019-01-19T20:24:23.520Z,-2.30
2019-01-19T20:26:51.068Z,-2.40
2019-01-19T20:29:18.636Z,-2.40
2019-01-19T20:31:46.207Z,-2.40
2019-01-19T20:34:13.783Z,-2.30
2019-01-19T20:36:41.324Z,-2.20
2019-01-19T20:39:08.951Z,-2.30
2019-01-19T20:41:36.515Z,-2.30
2019-01-19T20:44:04.091Z,-2.40
2019-01-19T20:46:31.631Z,-2.40
2019-01-19T20:48:59.207Z,-2.40
2019-01-19T20:51:26.751Z,-2.40
2019-01-19T20:53:54.335Z,-2.50
2019-01-19T20:56:21.913Z,-2.50
2019-01-19T20:58:49.615Z,-2.50
2019-01-19T21:01:17.180Z,-2.50
2019-01-19T21:03:44.720Z,-2.40
2019-01-19T21:06:12.287Z,-2.50
2019-01-19T21:08:40.928Z,-2.50
2019-01-19T21:11:09.235Z,-2.50
2019-01-19T21:13:36.800Z,-2.50
2019-01-19T21:16:04.366Z,-2.40
2019-01-19T21:18:31.947Z,-2.50
2019-01-19T21:20:59.488Z,-2.60
2019-01-19T21:23:27.058Z,-2.70
2019-01-19T21:25:54.610Z,-2.50
2019-01-19T21:28:22.190Z,-2.40
2019-01-19T21:30:49.730Z,-2.50
2019-01-19T21:33:17.362Z,-2.70
2019-01-19T21:35:44.923Z,-2.80
2019-01-19T21:38:12.466Z,-2.80
2019-01-19T21:40:40.030Z,-2.60
2019-01-19T21:43:07.605Z,-2.70
2019-01-19T21:45:35.146Z,-2.70
2019-01-19T21:48:02.687Z,-2.70
2019-01-19T21:50:30.367Z,-2.80
2019-01-19T21:52:57.907Z,-2.80
2019-01-19T21:55:25.475Z,-2.70
2019-01-19T21:57:53.019Z,-2.70
2019-01-19T22:00:21.931Z,-2.80
2019-01-19T22:02:48.186Z,-2.70
2019-01-19T22:05:15.771Z,-2.80
2019-01-19T22:07:44.091Z,-2.80
2019-01-19T22:10:15.826Z,-2.80
2019-01-19T22:12:43.419Z,-2.80
2019-01-19T22:15:10.983Z,-2.80
2019-01-19T22:17:39.769Z,-2.80
2019-01-19T22:20:06.162Z,-2.80
2019-01-19T22:22:33.729Z,-2.80
2019-01-19T22:25:01.301Z,-2.90
2019-01-19T22:27:28.858Z,-2.90
2019-01-19T22:29:56.427Z,-2.90
2019-01-19T22:32:23.994Z,-2.90
2019-01-19T22:34:51.572Z,-3.00
2019-01-19T22:37:19.107Z,-3.00
2019-01-19T22:39:46.677Z,-3.00
2019-01-19T22:42:14.248Z,-3.00
2019-01-19T22:44:41.819Z,-2.90
2019-01-19T22:47:10.128Z,-2.90
2019-01-19T22:49:37.707Z,-2.90
2019-01-19T22:52:05.271Z,-2.90
2019-01-19T22:54:32.843Z,-2.90
2019-01-19T22:57:00.378Z,-2.90
2019-01-19T22:59:27.947Z,-2.90
2019-01-19T23:01:55.524Z,-2.90
2019-01-19T23:04:23.837Z,-2.90
2019-01-19T23:06:51.404Z,-2.90
2019-01-19T23:09:18.960Z,-2.90
2019-01-19T23:11:46.499Z,-3.00
2019-01-19T23:14:14.074Z,-3.00
2019-01-19T23:16:42.613Z,-3.00
2019-01-19T23:19:10.179Z,-3.00
2019-01-19T23:21:38.785Z,-3.00
2019-01-19T23:24:06.355Z,-3.00
2019-01-19T23:26:33.891Z,-2.90
2019-01-19T23:29:01.459Z,-2.90
2019-01-19T23:31:28.994Z,-2.90
2019-01-19T23:33:56.665Z,-3.00
2019-01-19T23:36:24.243Z,-2.90
2019-01-19T23:38:51.802Z,-3.00
2019-01-19T23:41:19.362Z,-3.00
2019-01-19T23:43:46.934Z,-3.00
2019-01-19T23:46:14.468Z,-3.00
2019-01-19T23:48:42.041Z,-2.90
2019-01-19T23:51:09.618Z,-3.00
2019-01-19T23:53:37.191Z,-3.00
2019-01-19T23:56:04.775Z,-3.00
2019-01-19T23:58:32.352Z,-3.10
